Time;durP1;ratioP1;P1;durP2;ratioP2;P2;SDS_P1;SDS_P2;PMS_P1;PMS_P2;Temp;Humidity;BMP_temperature;BMP_pressure;BME280_temperature;BME280_humidity;BME280_pressure;Samples;Min_cycle;Max_cycle;Signal;HPM_P1;HPM_P2
2022/08/19 00:01:48;;;;;;;16.50;8.82;;;15.10;99.90;;;;;;5113599;28;20038;-84
2022/08/19 00:04:36;;;;;;;16.23;9.18;;;15.30;99.90;;;;;;5113229;28;20062;-83
2022/08/19 00:07:20;;;;;;;12.35;8.63;;;15.50;99.90;;;;;;5099128;28;20043;-84
2022/08/19 00:10:09;;;;;;;15.82;9.40;;;15.00;99.90;;;;;;5113432;28;20506;-84
2022/08/19 00:12:53;;;;;;;13.45;9.52;;;;;;;;;;5092205;28;20610;-84
2022/08/19 00:15:38;;;;;;;22.02;10.30;;;;;;;;;;5092883;28;20051;-84
2022/08/19 00:18:22;;;;;;;16.05;10.02;;;14.90;99.90;;;;;;5113094;28;20080;-83
2022/08/19 00:21:09;;;;;;;16.83;9.77;;;15.10;99.90;;;;;;5083674;28;20119;-84
2022/08/19 00:23:57;;;;;;;14.13;9.45;;;15.00;99.90;;;;;;5113404;28;20035;-84
2022/08/19 00:26:43;;;;;;;16.65;9.20;;;14.80;99.90;;;;;;5085268;28;20062;-83
2022/08/19 00:29:27;;;;;;;14.55;10.43;;;15.00;99.90;;;;;;5110254;28;20046;-84
2022/08/19 00:32:11;;;;;;;13.93;9.73;;;14.90;99.90;;;;;;5103831;28;20070;-83
2022/08/19 00:34:56;;;;;;;16.23;11.02;;;15.00;99.90;;;;;;5078144;28;20120;-83
2022/08/19 00:37:43;;;;;;;15.65;10.18;;;15.00;99.90;;;;;;5092441;28;20138;-83
2022/08/19 00:40:27;;;;;;;13.90;9.90;;;14.90;99.90;;;;;;5077437;28;20039;-84
2022/08/19 00:43:13;;;;;;;16.67;10.40;;;14.70;99.90;;;;;;5110128;28;20408;-84
2022/08/19 00:45:57;;;;;;;16.23;10.75;;;14.70;99.90;;;;;;5097554;28;20044;-83
2022/08/19 00:48:41;;;;;;;22.13;11.60;;;14.80;99.90;;;;;;5112387;28;20035;-83
2022/08/19 00:51:29;;;;;;;19.27;10.82;;;14.50;99.90;;;;;;5098474;28;20423;-84
2022/08/19 00:54:14;;;;;;;19.92;10.63;;;14.90;99.90;;;;;;5107151;28;20043;-83
2022/08/19 00:57:01;;;;;;;22.42;11.77;;;15.00;99.90;;;;;;5083072;28;20088;-84
2022/08/19 00:59:52;;;;;;;19.25;11.23;;;14.70;99.90;;;;;;5104860;28;20742;-84
2022/08/19 01:02:36;;;;;;;15.38;9.38;;;14.60;99.90;;;;;;5098978;28;20119;-83
2022/08/19 01:05:27;;;;;;;17.88;10.07;;;14.60;99.90;;;;;;5099163;28;20450;-83
2022/08/19 01:08:14;;;;;;;13.02;8.65;;;14.60;99.90;;;;;;5101035;28;20038;-84
2022/08/19 01:10:59;;;;;;;18.52;9.88;;;14.30;99.90;;;;;;5112186;28;20039;-84
2022/08/19 01:13:45;;;;;;;14.77;9.85;;;14.30;99.90;;;;;;5096700;28;20065;-84
2022/08/19 01:16:31;;;;;;;13.38;8.43;;;14.40;99.90;;;;;;5112148;28;20043;-84
2022/08/19 01:19:22;;;;;;;13.35;8.82;;;14.50;99.90;;;;;;5098218;28;20050;-84
2022/08/19 01:22:47;;;;;;;16.33;10.27;;;14.30;99.90;;;;;;5112633;28;20039;-84
2022/08/19 01:25:49;;;;;;;14.23;9.40;;;14.60;99.90;;;;;;5099707;28;20506;-84
2022/08/19 01:28:35;;;;;;;11.98;9.10;;;14.30;99.90;;;;;;5091839;28;20445;-84
2022/08/19 01:31:26;;;;;;;15.07;9.75;;;14.40;99.90;;;;;;5110114;28;20035;-83
2022/08/19 01:34:10;;;;;;;16.98;10.35;;;;;;;;;;5112468;28;20047;-84
2022/08/19 01:36:54;;;;;;;17.70;10.38;;;14.30;99.90;;;;;;5099723;28;20085;-83
2022/08/19 01:39:40;;;;;;;12.60;9.73;;;14.30;99.90;;;;;;5097526;28;20449;-83
2022/08/19 01:42:24;;;;;;;15.38;9.25;;;14.30;99.90;;;;;;5112435;28;20034;-83
2022/08/19 01:45:09;;;;;;;17.83;12.40;;;14.20;99.90;;;;;;5112229;28;20062;-83
2022/08/19 01:47:53;;;;;;;15.75;10.73;;;14.30;99.90;;;;;;5111960;28;20120;-84
2022/08/19 01:50:38;;;;;;;14.82;10.50;;;14.00;99.90;;;;;;5111997;28;20161;-83
2022/08/19 01:53:23;;;;;;;20.15;10.55;;;;;;;;;;5112141;28;20069;-84
2022/08/19 01:56:08;;;;;;;19.73;10.77;;;;;;;;;;5112233;28;20494;-84
2022/08/19 01:58:59;;;;;;;16.85;10.07;;;14.40;99.90;;;;;;5105257;28;20030;-83
2022/08/19 02:01:44;;;;;;;18.17;11.23;;;14.30;99.90;;;;;;5107405;28;20082;-83
2022/08/19 02:04:28;;;;;;;18.77;10.60;;;14.70;99.90;;;;;;5112186;28;20067;-83
2022/08/19 02:07:12;;;;;;;12.48;9.45;;;14.40;99.90;;;;;;5095169;28;20399;-83
2022/08/19 02:09:57;;;;;;;14.10;9.68;;;14.40;99.90;;;;;;5095763;28;20541;-84
2022/08/19 02:12:41;;;;;;;15.68;9.18;;;13.90;99.90;;;;;;5084912;28;20153;-84
2022/08/19 02:15:26;;;;;;;13.05;9.98;;;;;;;;;;5091531;28;20051;-83
2022/08/19 02:18:10;;;;;;;15.52;9.60;;;;;;;;;;5090491;28;20039;-83
2022/08/19 02:20:55;;;;;;;17.42;10.30;;;13.90;99.90;;;;;;5092320;28;20043;-83
2022/08/19 02:23:39;;;;;;;20.58;11.27;;;14.30;99.90;;;;;;5112897;28;20042;-84
2022/08/19 02:26:26;;;;;;;15.90;10.13;;;;;;;;;;5085892;28;20051;-84
2022/08/19 02:29:10;;;;;;;17.67;11.32;;;14.00;99.90;;;;;;5115352;28;20077;-83
2022/08/19 02:31:55;;;;;;;16.73;10.23;;;;;;;;;;5102466;28;20038;-83
2022/08/19 02:34:39;;;;;;;19.73;11.80;;;;;;;;;;5099814;28;20115;-88
2022/08/19 02:40:29;;;;;;;18.57;10.50;;;14.10;99.90;;;;;;5090748;28;20050;-83
2022/08/19 02:43:13;;;;;;;16.45;10.38;;;14.00;99.90;;;;;;5112458;28;20308;-83
2022/08/19 02:45:57;;;;;;;16.52;10.13;;;14.40;99.90;;;;;;5079095;28;20499;-83
2022/08/19 02:48:42;;;;;;;19.70;10.25;;;;;;;;;;5099657;28;20077;-87
2022/08/19 02:51:35;;;;;;;20.92;11.95;;;14.20;99.90;;;;;;5101235;28;20499;-83
2022/08/19 02:54:19;;;;;;;16.00;10.52;;;;;;;;;;5089295;28;20426;-83
2022/08/19 02:57:05;;;;;;;15.35;10.93;;;14.30;99.90;;;;;;5114674;28;20457;-84
2022/08/19 02:59:50;;;;;;;18.85;11.63;;;14.20;99.90;;;;;;5114509;28;20038;-83
2022/08/19 03:02:34;;;;;;;15.93;9.90;;;14.20;99.90;;;;;;5087023;28;20108;-83
2022/08/19 03:05:18;;;;;;;16.98;11.27;;;14.80;99.90;;;;;;5114615;28;20054;-83
2022/08/19 03:08:04;;;;;;;18.70;11.02;;;14.20;99.90;;;;;;5103972;28;20063;-83
2022/08/19 03:10:48;;;;;;;22.23;12.40;;;14.10;99.90;;;;;;5113711;28;20395;-83
2022/08/19 03:13:32;;;;;;;17.02;11.00;;;13.90;99.90;;;;;;5114816;28;20046;-83
2022/08/19 03:16:22;;;;;;;14.32;9.80;;;14.30;99.90;;;;;;5114928;28;20399;-83
2022/08/19 03:19:06;;;;;;;19.60;11.02;;;13.80;99.90;;;;;;5111576;28;20528;-83
2022/08/19 03:21:51;;;;;;;16.67;10.07;;;14.10;99.90;;;;;;5105208;28;20399;-83
2022/08/19 03:24:37;;;;;;;16.42;10.35;;;14.00;99.90;;;;;;5114593;28;20169;-83
2022/08/19 03:27:22;;;;;;;16.52;10.43;;;14.00;99.90;;;;;;5114246;28;20501;-83
2022/08/19 03:30:07;;;;;;;15.88;10.55;;;14.00;99.90;;;;;;5103164;28;20152;-83
2022/08/19 03:32:52;;;;;;;16.90;10.93;;;;;;;;;;5084443;28;20459;-83
2022/08/19 03:35:36;;;;;;;17.30;11.30;;;13.80;99.90;;;;;;5099103;28;20065;-83
2022/08/19 03:38:20;;;;;;;16.80;11.55;;;13.70;99.90;;;;;;5098978;28;20043;-83
2022/08/19 03:41:08;;;;;;;19.45;11.23;;;14.20;99.90;;;;;;5098528;28;20124;-84
2022/08/19 03:43:53;;;;;;;17.45;11.30;;;13.70;99.90;;;;;;5113663;28;20092;-83
2022/08/19 03:46:37;;;;;;;18.70;12.20;;;13.70;99.90;;;;;;5108828;28;20040;-83
2022/08/19 03:49:24;;;;;;;21.73;13.60;;;13.70;99.90;;;;;;5092494;28;20070;-83
2022/08/19 03:52:09;;;;;;;25.15;14.05;;;13.60;99.90;;;;;;5113540;28;20042;-83
2022/08/19 03:54:53;;;;;;;25.80;13.93;;;13.90;99.90;;;;;;5099509;28;20100;-84
2022/08/19 03:57:37;;;;;;;23.33;13.93;;;13.80;99.90;;;;;;5098643;28;20039;-83
2022/08/19 04:00:21;;;;;;;31.67;14.82;;;13.80;99.90;;;;;;5098513;28;20084;-83
2022/08/19 04:03:05;;;;;;;26.85;14.65;;;14.00;99.90;;;;;;5098478;28;20173;-83
2022/08/19 04:05:50;;;;;;;27.35;14.98;;;;;;;;;;5078046;28;20062;-87
2022/08/19 04:08:35;;;;;;;23.33;13.60;;;;;;;;;;5107613;28;20035;-84
2022/08/19 04:11:28;;;;;;;21.77;12.93;;;13.70;99.90;;;;;;5105991;28;20096;-83
2022/08/19 04:14:18;;;;;;;24.33;12.77;;;14.00;99.90;;;;;;5101288;28;20041;-83
2022/08/19 04:17:04;;;;;;;21.00;12.43;;;;;;;;;;5113120;28;20260;-83
2022/08/19 04:19:48;;;;;;;26.65;13.70;;;13.90;99.90;;;;;;5113782;28;20097;-83
2022/08/19 04:22:32;;;;;;;22.85;13.35;;;;;;;;;;5110826;28;20174;-83
2022/08/19 04:25:16;;;;;;;23.60;12.82;;;14.10;99.90;;;;;;5077658;28;20190;-84
2022/08/19 04:28:01;;;;;;;30.67;14.65;;;14.10;99.90;;;;;;5097779;28;20399;-83
2022/08/19 04:30:48;;;;;;;29.63;14.50;;;14.00;99.90;;;;;;5113414;28;20121;-83
2022/08/19 04:33:32;;;;;;;27.45;14.57;;;14.10;99.90;;;;;;5103950;28;20043;-83
2022/08/19 04:36:21;;;;;;;26.08;14.45;;;14.10;99.90;;;;;;5096434;28;20039;-83
2022/08/19 04:39:09;;;;;;;29.67;14.88;;;13.70;99.90;;;;;;5112840;28;20058;-83
2022/08/19 04:44:58;;;;;;;26.02;14.65;;;;;;;;;;5107471;28;20067;-88
2022/08/19 04:47:44;;;;;;;26.73;14.60;;;14.00;99.90;;;;;;5092491;28;20483;-82
2022/08/19 04:50:28;;;;;;;24.13;14.43;;;14.10;99.90;;;;;;5092970;28;20111;-83
2022/08/19 04:53:12;;;;;;;27.08;15.13;;;13.80;99.90;;;;;;5095555;28;20039;-83
2022/08/19 04:55:58;;;;;;;23.25;13.93;;;14.00;99.90;;;;;;5113173;28;20042;-87
2022/08/19 04:58:45;;;;;;;25.60;13.73;;;14.10;99.90;;;;;;5099447;28;20153;-84
2022/08/19 05:01:29;;;;;;;25.63;14.13;;;13.90;99.90;;;;;;5112930;28;20057;-83
2022/08/19 05:04:14;;;;;;;31.20;14.77;;;13.90;99.90;;;;;;5096620;28;20059;-82
2022/08/19 05:07:00;;;;;;;25.15;13.82;;;14.00;99.90;;;;;;5107531;28;20064;-87
2022/08/19 05:09:44;;;;;;;20.80;12.82;;;14.20;99.90;;;;;;5106382;28;20215;-82
2022/08/19 05:12:28;;;;;;;20.15;12.68;;;14.10;99.90;;;;;;5113015;28;20399;-79
2022/08/19 05:15:12;;;;;;;19.23;13.15;;;14.30;99.90;;;;;;5112385;28;20081;-81
2022/08/19 05:24:10;;;;;;;27.10;14.73;;;14.10;99.90;;;;;;5108738;28;20111;-82
2022/08/19 05:26:58;;;;;;;33.92;16.48;;;14.20;99.90;;;;;;5086834;28;20515;-81
2022/08/19 05:29:42;;;;;;;33.05;17.17;;;14.20;99.90;;;;;;5106790;28;20035;-81
2022/08/19 05:32:26;;;;;;;34.08;16.25;;;14.20;99.90;;;;;;5077760;28;20043;-83
2022/08/19 05:35:11;;;;;;;28.95;15.45;;;14.60;99.90;;;;;;5096702;28;20042;-81
2022/08/19 05:37:55;;;;;;;27.65;15.90;;;14.20;99.90;;;;;;5099898;28;20499;-82
2022/08/19 05:40:40;;;;;;;28.95;16.58;;;;;;;;;;5079976;28;20081;-81
2022/08/19 05:43:25;;;;;;;29.60;16.63;;;;;;;;;;5092560;28;20038;-81
2022/08/19 05:46:17;;;;;;;36.28;19.45;;;14.60;99.90;;;;;;5098739;28;20044;-81
2022/08/19 05:49:02;;;;;;;33.55;18.55;;;;;;;;;;5092504;28;20047;-80
2022/08/19 05:51:46;;;;;;;29.98;18.77;;;15.50;99.90;;;;;;5103894;28;20043;-80
2022/08/19 05:54:30;;;;;;;33.55;19.33;;;15.50;99.90;;;;;;5086244;28;20061;-83
2022/08/19 05:57:15;;;;;;;30.02;18.30;;;15.50;99.90;;;;;;5106495;28;20066;-81
2022/08/19 06:00:01;;;;;;;33.33;19.60;;;15.60;99.90;;;;;;5100840;28;20497;-82
2022/08/19 06:02:46;;;;;;;29.45;17.98;;;;;;;;;;5085588;28;20541;-84
2022/08/19 06:05:31;;;;;;;27.98;18.17;;;16.00;99.90;;;;;;5110999;28;20063;-83
2022/08/19 06:08:18;;;;;;;28.63;17.48;;;16.00;99.90;;;;;;5115379;28;20070;-84
2022/08/19 06:11:24;;;;;;;26.55;17.75;;;16.50;99.90;;;;;;5115813;28;20490;-84
2022/08/19 06:14:20;;;;;;;26.67;16.50;;;16.40;99.90;;;;;;5115418;28;20131;-86
2022/08/19 06:17:04;;;;;;;24.38;16.20;;;16.00;99.90;;;;;;5115773;28;20058;-84
2022/08/19 06:19:49;;;;;;;26.33;15.68;;;16.70;99.90;;;;;;5092632;28;20403;-84
2022/08/19 06:22:39;;;;;;;20.35;14.73;;;16.80;99.90;;;;;;5112298;28;20043;-84
2022/08/19 06:25:23;;;;;;;21.20;14.73;;;16.80;99.90;;;;;;5079465;28;20408;-82
2022/08/19 06:28:07;;;;;;;22.35;14.80;;;;;;;;;;5087548;28;20074;-84
2022/08/19 06:30:52;;;;;;;17.80;13.38;;;17.10;99.90;;;;;;5101296;28;20042;-82
2022/08/19 06:33:37;;;;;;;19.80;14.27;;;17.30;99.90;;;;;;5105968;28;20071;-81
2022/08/19 06:36:29;;;;;;;20.23;13.75;;;17.40;99.90;;;;;;5110028;28;20085;-82
2022/08/19 06:39:18;;;;;;;18.00;12.93;;;17.60;99.90;;;;;;5107582;28;20088;-83
2022/08/19 06:42:06;;;;;;;18.38;13.68;;;17.10;99.90;;;;;;5115531;28;20540;-85
2022/08/19 06:44:50;;;;;;;15.10;12.48;;;17.70;99.90;;;;;;5095906;28;20472;-86
2022/08/19 06:47:34;;;;;;;18.70;11.88;;;17.80;99.90;;;;;;5114575;28;20403;-85
2022/08/19 06:50:19;;;;;;;19.13;12.48;;;17.90;99.90;;;;;;5115148;28;20039;-84
2022/08/19 06:53:03;;;;;;;16.50;11.50;;;18.10;99.90;;;;;;5114942;28;20043;-83
2022/08/19 06:55:47;;;;;;;15.65;11.43;;;18.10;99.90;;;;;;5114926;28;20114;-85
2022/08/19 06:58:32;;;;;;;15.02;11.80;;;18.40;99.90;;;;;;5113123;28;20031;-85
2022/08/19 07:01:16;;;;;;;17.35;11.10;;;18.50;99.90;;;;;;5098898;28;20046;-85
2022/08/19 07:04:02;;;;;;;13.73;10.60;;;18.50;99.90;;;;;;5114510;28;20102;-86
2022/08/19 07:06:47;;;;;;;14.00;10.85;;;18.70;99.90;;;;;;5114668;28;20504;-88
2022/08/19 07:09:31;;;;;;;18.73;11.13;;;19.10;99.90;;;;;;5113594;28;20054;-84
2022/08/19 07:12:16;;;;;;;13.70;11.20;;;;;;;;;;5080801;28;20513;-87
2022/08/19 07:15:00;;;;;;;13.30;10.32;;;19.10;99.90;;;;;;5111253;28;20050;-86
2022/08/19 07:17:44;;;;;;;15.65;10.60;;;19.60;99.90;;;;;;5114800;28;20047;-86
2022/08/19 07:20:28;;;;;;;13.70;10.52;;;20.40;99.90;;;;;;5113871;28;20084;-85
2022/08/19 07:23:13;;;;;;;12.18;10.00;;;21.70;99.90;;;;;;5087597;28;20509;-87
2022/08/19 07:25:57;;;;;;;12.10;10.52;;;22.70;99.90;;;;;;5114309;28;20467;-85
2022/08/19 07:28:43;;;;;;;14.63;9.80;;;22.50;99.90;;;;;;5098562;28;20050;-87
2022/08/19 07:31:28;;;;;;;10.98;9.88;;;22.70;99.90;;;;;;5098632;28;20046;-88
2022/08/19 07:34:14;;;;;;;16.42;10.30;;;23.60;99.90;;;;;;5114352;28;20035;-85
2022/08/19 07:36:59;;;;;;;13.43;10.05;;;23.50;99.90;;;;;;5114207;28;20106;-85
2022/08/19 07:39:44;;;;;;;11.75;9.68;;;24.00;99.90;;;;;;5113811;28;20039;-89
2022/08/19 07:42:29;;;;;;;10.07;8.98;;;23.60;99.90;;;;;;5098187;28;20034;-88
2022/08/19 07:45:13;;;;;;;12.35;9.63;;;23.10;99.90;;;;;;5114078;28;20096;-89
2022/08/19 07:47:58;;;;;;;14.60;9.93;;;22.90;99.90;;;;;;5082157;28;20453;-87
2022/08/19 07:50:43;;;;;;;14.00;9.50;;;22.80;99.90;;;;;;5093155;28;20031;-88
2022/08/19 07:53:30;;;;;;;13.10;8.65;;;22.70;99.90;;;;;;5098427;28;20050;-85
2022/08/19 07:56:14;;;;;;;9.68;7.63;;;22.90;99.90;;;;;;5098066;28;20545;-87
2022/08/19 07:58:59;;;;;;;10.50;7.07;;;23.20;99.90;;;;;;5093705;28;20107;-87
2022/08/19 08:01:44;;;;;;;9.00;6.93;;;23.60;99.90;;;;;;5077682;28;20115;-85
2022/08/19 08:10:36;;;;;;;9.82;6.90;;;26.60;99.90;;;;;;5099265;28;20038;-87
2022/08/19 08:13:20;;;;;;;8.73;5.72;;;26.10;99.90;;;;;;5113508;28;20034;-85
2022/08/19 08:16:05;;;;;;;9.90;7.20;;;26.10;99.90;;;;;;5098315;28;20061;-86
2022/08/19 08:18:49;;;;;;;8.60;7.50;;;26.80;99.90;;;;;;5108910;28;20142;-85
2022/08/19 08:21:33;;;;;;;9.55;8.55;;;26.30;99.90;;;;;;5076349;28;20039;-85
2022/08/19 08:24:18;;;;;;;11.05;8.55;;;26.90;99.90;;;;;;5110484;28;20050;-85
2022/08/19 08:27:03;;;;;;;12.68;8.60;;;;;;;;;;5113422;28;20076;-85
2022/08/19 08:29:48;;;;;;;13.63;9.10;;;;;;;;;;5097395;28;20097;-86
2022/08/19 08:32:33;;;;;;;10.05;8.30;;;;;;;;;;5098301;28;20112;-86
2022/08/19 08:35:21;;;;;;;11.93;8.63;;;25.70;99.90;;;;;;5113245;28;20051;-86
2022/08/19 08:38:05;;;;;;;13.15;10.93;;;;;;;;;;5112928;28;20030;-87
2022/08/19 08:41:07;;;;;;;15.75;10.82;;;25.40;99.90;;;;;;5112637;28;20038;-85
2022/08/19 08:43:52;;;;;;;12.43;10.98;;;25.10;99.90;;;;;;5092547;28;20035;-85
2022/08/19 08:46:53;;;;;;;12.52;9.77;;;24.90;99.90;;;;;;5076710;28;20046;-85
2022/08/19 08:49:48;;;;;;;10.98;9.68;;;25.30;99.90;;;;;;5092467;28;20039;-85
2022/08/19 08:52:36;;;;;;;12.00;9.73;;;25.20;99.90;;;;;;5092440;28;20027;-85
2022/08/19 08:55:27;;;;;;;10.48;7.80;;;25.20;99.90;;;;;;5096688;28;20452;-85
2022/08/19 08:58:49;;;;;;;9.05;7.88;;;25.40;99.90;;;;;;5097612;28;20053;-86
2022/08/19 09:01:34;;;;;;;8.25;7.15;;;;;;;;;;5088198;28;20043;-85
2022/08/19 09:04:19;;;;;;;10.52;7.50;;;;;;;;;;5092004;28;20545;-86
2022/08/19 09:07:03;;;;;;;7.65;6.15;;;;;;;;;;5097247;28;20085;-86
2022/08/19 09:09:55;;;;;;;9.70;6.60;;;26.00;99.90;;;;;;5091870;28;20047;-85
2022/08/19 09:13:10;;;;;;;8.27;6.35;;;25.90;99.90;;;;;;5091611;28;20165;-85
2022/08/19 09:16:04;;;;;;;7.97;6.72;;;26.10;99.90;;;;;;5091591;28;20085;-86
2022/08/19 09:18:54;;;;;;;10.70;6.90;;;29.10;99.90;;;;;;5091845;28;20085;-84
2022/08/19 09:21:39;;;;;;;8.88;7.65;;;;;;;;;;5085784;28;20579;-85
2022/08/19 09:24:23;;;;;;;8.02;6.15;;;26.60;99.90;;;;;;5112266;28;20096;-84
2022/08/19 09:27:08;;;;;;;7.25;6.03;;;;;;;;;;5097232;28;20058;-85
2022/08/19 09:29:53;;;;;;;11.02;7.38;;;;;;;;;;5096580;28;20063;-85
2022/08/19 09:32:38;;;;;;;10.18;6.60;;;;;;;;;;5096030;28;20088;-85
2022/08/19 09:35:28;;;;;;;8.50;6.68;;;26.70;99.90;;;;;;5106658;28;20139;-84
2022/08/19 09:38:13;;;;;;;11.75;7.60;;;;;;;;;;5108376;28;20038;-84
2022/08/19 09:41:02;;;;;;;6.88;5.60;;;26.90;99.90;;;;;;5105295;28;20042;-83
2022/08/19 09:43:51;;;;;;;7.28;6.22;;;26.90;99.90;;;;;;5115081;28;20047;-83
2022/08/19 09:46:36;;;;;;;7.25;6.20;;;;;;;;;;5107207;28;20042;-87
2022/08/19 09:49:23;;;;;;;8.23;6.03;;;;;;;;;;5094991;28;20460;-83
2022/08/19 09:52:11;;;;;;;6.93;5.80;;;27.00;99.90;;;;;;5088964;28;20479;-83
2022/08/19 09:54:56;;;;;;;8.15;6.07;;;;;;;;;;5108427;28;20042;-84
2022/08/19 09:57:41;;;;;;;7.55;5.93;;;;;;;;;;5110004;28;20039;-83
2022/08/19 10:00:26;;;;;;;7.93;6.93;;;;;;;;;;5074562;28;20059;-85
2022/08/19 10:03:11;;;;;;;7.65;5.60;;;;;;;;;;5099482;28;20070;-84
2022/08/19 10:05:57;;;;;;;7.00;5.97;;;27.50;99.90;;;;;;5095515;28;20087;-82
2022/08/19 10:08:42;;;;;;;8.40;6.00;;;;;;;;;;5109732;28;20077;-83
2022/08/19 10:11:27;;;;;;;9.18;6.70;;;;;;;;;;5095954;28;20427;-83
2022/08/19 10:14:12;;;;;;;7.05;6.35;;;;;;;;;;5097997;28;20087;-86
2022/08/19 10:16:56;;;;;;;9.38;7.03;;;;;;;;;;5100230;28;20038;-86
2022/08/19 10:19:41;;;;;;;8.40;6.45;;;;;;;;;;5100767;28;20043;-86
2022/08/19 10:22:25;;;;;;;8.68;6.80;;;;;;;;;;5084137;28;20039;-88
2022/08/19 10:25:10;;;;;;;6.82;5.90;;;;;;;;;;5099832;28;20157;-83
2022/08/19 10:27:55;;;;;;;7.78;6.32;;;;;;;;;;5106278;28;20094;-84
2022/08/19 10:30:40;;;;;;;7.65;6.65;;;27.70;98.20;;;;;;5108978;28;20050;-83
2022/08/19 10:33:25;;;;;;;10.55;6.47;;;;;;;;;;5100279;28;20506;-82
2022/08/19 10:36:17;;;;;;;9.27;6.32;;;27.40;99.90;;;;;;5101674;28;20046;-83
2022/08/19 10:39:04;;;;;;;10.47;7.00;;;;;;;;;;5113121;28;20038;-83
2022/08/19 10:41:49;;;;;;;7.60;6.55;;;;;;;;;;5095207;28;20256;-84
2022/08/19 10:44:35;;;;;;;9.00;7.10;;;27.90;96.90;;;;;;5094008;28;20086;-82
2022/08/19 10:47:20;;;;;;;6.88;6.13;;;;;;;;;;5097138;28;20066;-83
2022/08/19 10:53:08;;;;;;;7.53;6.30;;;27.90;96.90;;;;;;5108980;28;20038;-84
2022/08/19 10:58:57;;;;;;;8.32;6.82;;;28.00;99.60;;;;;;5101151;28;20042;-82
2022/08/19 11:01:44;;;;;;;9.57;6.20;;;27.30;97.60;;;;;;5085931;28;20031;-82
2022/08/19 11:04:28;;;;;;;9.23;7.30;;;;;;;;;;5114843;28;20058;-83
2022/08/19 11:07:13;;;;;;;8.75;6.90;;;;;;;;;;5114600;28;20038;-81
2022/08/19 11:09:58;;;;;;;8.93;7.18;;;;;;;;;;5114272;28;20038;-82
2022/08/19 11:12:42;;;;;;;9.02;7.88;;;;;;;;;;5099478;28;20039;-83
2022/08/19 11:15:28;;;;;;;9.43;8.05;;;;;;;;;;5114537;28;20042;-84
2022/08/19 11:18:13;;;;;;;15.50;8.68;;;27.00;97.80;;;;;;5108210;28;20038;-83
2022/08/19 11:21:06;;;;;;;10.25;7.78;;;27.40;98.20;;;;;;5095999;28;20038;-83
2022/08/19 11:23:54;;;;;;;9.25;7.90;;;27.40;97.40;;;;;;5098824;28;20043;-88
2022/08/19 11:26:39;;;;;;;11.75;8.30;;;27.50;97.70;;;;;;5114619;28;20046;-85
2022/08/19 11:29:27;;;;;;;8.02;7.03;;;;;;;;;;5114335;28;20171;-85
2022/08/19 11:32:12;;;;;;;8.43;7.40;;;;;;;;;;5099050;28;20065;-84
2022/08/19 11:34:57;;;;;;;8.65;7.55;;;;;;;;;;5098309;28;20445;-83
2022/08/19 11:37:41;;;;;;;9.70;8.60;;;;;;;;;;5099943;28;20482;-83
2022/08/19 11:40:26;;;;;;;9.60;8.63;;;;;;;;;;5099087;28;20524;-84
2022/08/19 11:43:10;;;;;;;11.00;8.55;;;;;;;;;;5113760;28;20406;-84
2022/08/19 11:45:55;;;;;;;10.82;9.07;;;28.30;94.80;;;;;;5104911;28;20042;-83
2022/08/19 11:48:40;;;;;;;10.43;7.18;;;;;;;;;;5097044;28;20113;-83
2022/08/19 11:51:25;;;;;;;9.90;7.65;;;;;;;;;;5094847;28;20054;-85
2022/08/19 11:54:11;;;;;;;11.23;8.50;;;28.40;94.10;;;;;;5104351;28;20055;-84
2022/08/19 11:56:55;;;;;;;8.73;7.85;;;;;;;;;;5087268;28;20030;-87
2022/08/19 11:59:40;;;;;;;12.75;9.40;;;;;;;;;;5099113;28;20098;-84
2022/08/19 12:02:25;;;;;;;8.48;7.50;;;;;;;;;;5101562;28;20043;-84
2022/08/19 12:05:10;;;;;;;9.18;6.38;;;28.50;97.00;;;;;;5108035;28;20055;-82
2022/08/19 12:07:54;;;;;;;9.05;6.43;;;;;;;;;;5090143;28;20038;-83
2022/08/19 12:10:40;;;;;;;10.55;7.25;;;28.40;93.80;;;;;;5101177;28;20047;-84
2022/08/19 12:13:25;;;;;;;9.20;7.53;;;;;;;;;;5102742;28;20066;-82
2022/08/19 12:16:15;;;;;;;9.10;7.85;;;28.50;96.00;;;;;;5098193;28;20046;-83
2022/08/19 12:19:03;;;;;;;9.48;7.00;;;;;;;;;;5103529;28;20031;-84
2022/08/19 12:21:48;;;;;;;9.15;6.70;;;;;;;;;;5093413;28;20043;-83
2022/08/19 12:24:33;;;;;;;6.80;6.07;;;;;;;;;;5107205;28;20043;-85
2022/08/19 12:27:18;;;;;;;8.07;5.47;;;;;;;;;;5091281;28;20623;-84
2022/08/19 12:30:05;;;;;;;7.32;6.60;;;27.20;96.70;;;;;;5092616;28;20039;-85
2022/08/19 12:32:51;;;;;;;7.85;5.88;;;;;;;;;;5096287;28;20047;-83
2022/08/19 12:35:36;;;;;;;6.03;5.20;;;;;;;;;;5077501;28;20085;-84
2022/08/19 12:38:24;;;;;;;6.65;3.80;;;28.00;94.50;;;;;;5091319;28;20497;-84
2022/08/19 12:41:11;;;;;;;5.95;3.35;;;28.10;92.30;;;;;;5112473;28;20088;-84
2022/08/19 12:43:56;;;;;;;4.80;3.05;;;;;;;;;;5112805;28;20096;-83
2022/08/19 12:46:41;;;;;;;6.07;3.58;;;;;;;;;;5112752;28;20161;-84
2022/08/19 12:49:26;;;;;;;5.32;3.55;;;29.00;92.20;;;;;;5106421;28;20061;-83
2022/08/19 12:52:14;;;;;;;5.45;3.65;;;;;;;;;;5111017;28;20086;-84
2022/08/19 12:54:58;;;;;;;4.47;3.30;;;29.60;88.50;;;;;;5102154;28;20034;-85
2022/08/19 12:57:43;;;;;;;4.30;3.45;;;;;;;;;;5095609;28;20120;-85
2022/08/19 13:00:27;;;;;;;7.78;3.83;;;;;;;;;;5098113;28;20107;-84
2022/08/19 13:03:12;;;;;;;5.50;3.63;;;;;;;;;;5096120;28;20038;-84
2022/08/19 13:05:56;;;;;;;6.72;4.28;;;28.60;88.20;;;;;;5098883;28;20055;-84
2022/08/19 13:08:41;;;;;;;7.43;3.75;;;;;;;;;;5098713;28;20042;-85
2022/08/19 13:11:26;;;;;;;5.05;3.88;;;;;;;;;;5079273;28;20039;-84
2022/08/19 13:14:11;;;;;;;7.82;5.10;;;;;;;;;;5092831;28;20035;-88
2022/08/19 13:16:57;;;;;;;5.70;4.35;;;;;;;;;;5082020;28;20081;-85
2022/08/19 13:19:41;;;;;;;7.05;4.85;;;28.10;88.60;;;;;;5099227;28;20116;-85
2022/08/19 13:22:25;;;;;;;6.82;5.03;;;28.00;89.60;;;;;;5096616;28;20063;-86
2022/08/19 13:25:10;;;;;;;8.07;5.57;;;;;;;;;;5090958;28;20066;-84
2022/08/19 13:27:54;;;;;;;8.80;5.55;;;26.40;90.40;;;;;;5090719;28;20035;-83
2022/08/19 13:33:42;;;;;;;13.15;9.75;;;27.10;93.80;;;;;;5096521;28;20491;-83
2022/08/19 13:36:27;;;;;;;14.93;11.50;;;;;;;;;;5099864;28;20039;-83
2022/08/19 13:39:12;;;;;;;16.08;11.50;;;27.40;97.00;;;;;;5096919;28;20125;-85
2022/08/19 13:41:57;;;;;;;16.98;13.45;;;27.40;98.30;;;;;;5100146;28;20038;-84
2022/08/19 13:44:42;;;;;;;17.02;12.95;;;;;;;;;;5094269;28;20092;-85
2022/08/19 13:47:26;;;;;;;18.52;14.23;;;;;;;;;;5093903;28;20459;-84
2022/08/19 13:50:14;;;;;;;22.73;14.43;;;26.40;99.90;;;;;;5110436;28;20057;-88
2022/08/19 13:53:00;;;;;;;24.80;15.98;;;26.30;99.90;;;;;;5099732;28;20066;-84
2022/08/19 13:55:45;;;;;;;19.98;15.65;;;;;;;;;;5107097;28;20039;-84
2022/08/19 13:58:31;;;;;;;19.05;15.65;;;25.70;99.90;;;;;;5092948;28;20437;-84
2022/08/19 14:01:22;;;;;;;20.20;15.57;;;25.10;99.90;;;;;;5078937;28;20082;-84
2022/08/19 14:04:07;;;;;;;21.15;15.85;;;25.20;99.90;;;;;;5095319;28;20431;-83
2022/08/19 14:06:52;;;;;;;20.48;14.23;;;;;;;;;;5101427;28;20415;-84
2022/08/19 14:09:37;;;;;;;17.42;13.57;;;;;;;;;;5111782;28;20395;-87
2022/08/19 14:12:22;;;;;;;20.83;15.30;;;24.70;99.90;;;;;;5105443;28;20039;-83
2022/08/19 14:15:08;;;;;;;17.42;14.00;;;24.60;99.90;;;;;;5107180;28;20399;-84
2022/08/19 14:17:54;;;;;;;17.58;13.88;;;;;;;;;;5111973;28;20035;-83
2022/08/19 14:20:38;;;;;;;14.50;12.95;;;;;;;;;;5114997;28;20053;-83
2022/08/19 14:23:23;;;;;;;17.50;13.15;;;;;;;;;;5115351;28;20540;-83
2022/08/19 14:26:11;;;;;;;11.85;10.15;;;25.20;99.90;;;;;;5115452;28;20046;-85
2022/08/19 14:28:57;;;;;;;14.00;10.75;;;;;;;;;;5102192;28;20035;-82
2022/08/19 14:31:43;;;;;;;15.40;10.73;;;;;;;;;;5088414;28;20039;-84
2022/08/19 14:34:27;;;;;;;15.57;10.77;;;;;;;;;;5114862;28;20147;-83
2022/08/19 14:37:14;;;;;;;15.25;9.98;;;25.80;99.90;;;;;;5100190;28;20031;-83
2022/08/19 14:39:58;;;;;;;17.20;11.63;;;;;;;;;;5109460;28;20044;-82
2022/08/19 14:42:43;;;;;;;17.95;12.85;;;25.50;99.90;;;;;;5095510;28;20039;-85
2022/08/19 14:45:28;;;;;;;21.73;13.43;;;25.40;99.90;;;;;;5105444;28;20093;-82
2022/08/19 14:48:13;;;;;;;21.02;13.85;;;;;;;;;;5112520;28;20034;-83
2022/08/19 14:50:57;;;;;;;19.23;13.38;;;;;;;;;;5103522;28;20043;-83
2022/08/19 14:53:43;;;;;;;18.10;11.75;;;;;;;;;;5094371;28;20062;-85
2022/08/19 14:56:30;;;;;;;16.60;11.15;;;25.00;99.90;;;;;;5094150;28;20497;-83
2022/08/19 14:59:14;;;;;;;12.75;9.52;;;;;;;;;;5094819;28;20078;-83
2022/08/19 15:01:59;;;;;;;10.60;8.55;;;;;;;;;;5094510;28;20070;-83
2022/08/19 15:04:44;;;;;;;11.60;7.72;;;;;;;;;;5094130;28;20510;-82
2022/08/19 15:07:29;;;;;;;9.10;6.95;;;;;;;;;;5094080;28;20038;-83
2022/08/19 15:10:15;;;;;;;7.47;6.57;;;24.70;99.90;;;;;;5094178;28;20055;-83
2022/08/19 15:13:00;;;;;;;11.27;7.78;;;;;;;;;;5094615;28;20032;-82
2022/08/19 15:15:45;;;;;;;15.50;9.10;;;25.10;99.90;;;;;;5093971;28;20404;-82
2022/08/19 15:18:30;;;;;;;12.57;9.18;;;;;;;;;;5093737;28;20399;-83